createdAt,value
2019-02-18T00:00:38.590Z,12.37
2019-02-18T00:03:08.371Z,13.15
2019-02-18T00:05:37.967Z,11.73
2019-02-18T00:08:07.931Z,13.38
2019-02-18T00:10:37.481Z,13.90
2019-02-18T00:13:07.351Z,12.45
2019-02-18T00:15:36.846Z,12.88
2019-02-18T00:18:06.396Z,13.50
2019-02-18T00:20:35.963Z,14.33
2019-02-18T00:23:05.612Z,15.10
2019-02-18T00:25:35.197Z,14.85
2019-02-18T00:28:04.815Z,15.25
2019-02-18T00:30:34.388Z,15.13
2019-02-18T00:33:03.940Z,15.25
2019-02-18T00:35:33.616Z,15.75
2019-02-18T00:38:03.120Z,12.90
2019-02-18T00:40:32.602Z,15.45
2019-02-18T00:43:02.104Z,13.88
2019-02-18T00:45:31.612Z,14.50
2019-02-18T00:48:01.127Z,14.33
2019-02-18T00:50:30.584Z,16.42
2019-02-18T00:53:00.070Z,16.62
2019-02-18T00:55:29.599Z,13.88
2019-02-18T00:57:59.067Z,16.30
2019-02-18T01:00:28.672Z,16.50
2019-02-18T01:03:00.599Z,17.95
2019-02-18T01:05:30.091Z,18.40
2019-02-18T01:07:59.598Z,18.05
2019-02-18T01:10:29.158Z,15.10
2019-02-18T01:12:58.768Z,16.62
2019-02-18T01:15:28.502Z,15.18
2019-02-18T01:17:58.088Z,16.90
2019-02-18T01:20:27.716Z,15.55
2019-02-18T01:22:57.331Z,15.08
2019-02-18T01:25:26.864Z,14.63
2019-02-18T01:27:57.947Z,15.30
2019-02-18T01:30:27.604Z,12.23
2019-02-18T01:32:59.048Z,14.80
2019-02-18T01:35:28.603Z,13.32
2019-02-18T01:37:58.233Z,14.10
2019-02-18T01:40:27.788Z,12.93
2019-02-18T01:42:59.780Z,12.35
2019-02-18T01:45:29.519Z,12.00
2019-02-18T01:48:18.153Z,12.88
2019-02-18T01:50:47.737Z,12.35
2019-02-18T01:53:17.262Z,12.95
2019-02-18T01:55:46.839Z,13.58
2019-02-18T01:58:16.408Z,11.73
2019-02-18T02:00:45.878Z,14.78
2019-02-18T02:03:15.408Z,11.63
2019-02-18T02:05:44.868Z,12.15
2019-02-18T02:08:14.381Z,13.45
2019-02-18T02:10:44.034Z,11.15
2019-02-18T02:13:34.007Z,12.80
2019-02-18T02:16:06.137Z,12.00
2019-02-18T02:18:35.683Z,13.93
2019-02-18T02:21:05.351Z,13.00
2019-02-18T02:23:34.928Z,12.37
2019-02-18T02:26:04.432Z,11.48
2019-02-18T02:28:33.935Z,12.82
2019-02-18T02:31:03.582Z,11.85
2019-02-18T02:33:33.185Z,11.22
2019-02-18T02:36:02.787Z,11.68
2019-02-18T02:38:32.529Z,12.05
2019-02-18T02:41:04.139Z,13.60
2019-02-18T02:43:33.763Z,12.90
2019-02-18T02:46:03.258Z,14.58
2019-02-18T02:48:32.856Z,12.47
2019-02-18T02:51:02.524Z,11.90
2019-02-18T02:53:32.067Z,13.80
2019-02-18T02:56:01.982Z,13.48
2019-02-18T02:58:31.668Z,12.98
2019-02-18T03:01:01.464Z,13.15
2019-02-18T03:03:31.253Z,14.07
2019-02-18T03:06:00.900Z,13.85
2019-02-18T03:08:30.413Z,16.00
2019-02-18T03:11:00.045Z,14.40
2019-02-18T03:13:29.702Z,14.05
2019-02-18T03:15:59.269Z,13.68
2019-02-18T03:18:28.846Z,15.03
2019-02-18T03:20:58.434Z,14.23
2019-02-18T03:23:28.486Z,13.13
2019-02-18T03:25:58.209Z,12.80
2019-02-18T03:29:10.058Z,12.10
2019-02-18T03:31:39.667Z,15.10
2019-02-18T03:34:17.291Z,15.10
2019-02-18T03:36:46.908Z,14.98
2019-02-18T03:39:16.523Z,13.22
2019-02-18T03:41:46.112Z,14.30
2019-02-18T03:44:15.737Z,14.13
2019-02-18T03:46:45.256Z,15.40
2019-02-18T03:49:14.853Z,13.72
2019-02-18T03:51:44.406Z,15.95
2019-02-18T03:54:14.686Z,15.48
2019-02-18T03:56:44.199Z,15.32
2019-02-18T03:59:14.043Z,15.88
2019-02-18T04:01:43.670Z,14.18
2019-02-18T04:04:13.224Z,15.23
2019-02-18T04:06:42.800Z,16.75
2019-02-18T04:09:12.398Z,13.15
2019-02-18T04:11:41.936Z,15.15
2019-02-18T04:14:11.690Z,13.68
2019-02-18T04:16:41.227Z,11.90
2019-02-18T04:19:10.841Z,14.35
2019-02-18T04:21:40.447Z,15.90
2019-02-18T04:24:09.942Z,13.35
2019-02-18T04:26:42.276Z,16.42
2019-02-18T04:29:11.915Z,14.30
2019-02-18T04:31:41.561Z,15.40
2019-02-18T04:34:11.109Z,13.85
2019-02-18T04:36:40.673Z,13.25
2019-02-18T04:39:10.303Z,14.15
2019-02-18T04:41:39.894Z,13.32
2019-02-18T04:44:09.399Z,14.68
2019-02-18T04:46:38.931Z,12.00
2019-02-18T04:49:08.434Z,12.70
2019-02-18T04:51:37.989Z,11.53
2019-02-18T04:54:07.665Z,13.32
2019-02-18T04:56:37.176Z,12.93
2019-02-18T04:59:08.293Z,15.55
2019-02-18T05:01:37.859Z,13.05
2019-02-18T05:04:08.594Z,13.98
2019-02-18T05:06:38.203Z,13.03
2019-02-18T05:09:07.883Z,15.10
2019-02-18T05:11:37.306Z,15.40
2019-02-18T05:14:06.814Z,14.73
2019-02-18T05:16:36.315Z,15.15
2019-02-18T05:19:05.893Z,13.25
2019-02-18T05:21:35.464Z,13.93
2019-02-18T05:24:04.962Z,12.68
2019-02-18T05:26:34.519Z,12.80
2019-02-18T05:29:04.045Z,12.30
2019-02-18T05:31:33.664Z,13.85
2019-02-18T05:34:03.168Z,13.00
2019-02-18T05:36:32.674Z,12.05
2019-02-18T05:39:02.271Z,14.95
2019-02-18T05:41:31.743Z,12.95
2019-02-18T05:44:01.231Z,13.78
2019-02-18T05:46:30.848Z,14.05
2019-02-18T05:49:00.311Z,13.83
2019-02-18T05:51:29.836Z,14.90
2019-02-18T05:53:59.504Z,14.55
2019-02-18T05:56:28.991Z,13.22
2019-02-18T05:58:58.505Z,14.60
2019-02-18T06:01:27.998Z,15.23
2019-02-18T06:04:00.073Z,15.48
2019-02-18T06:06:28.726Z,14.58
2019-02-18T06:08:58.335Z,13.15
2019-02-18T06:11:27.878Z,14.43
2019-02-18T06:13:57.537Z,14.33
2019-02-18T06:16:27.145Z,13.25
2019-02-18T06:18:56.694Z,12.88
2019-02-18T06:21:26.221Z,13.45
2019-02-18T06:23:55.836Z,12.75
2019-02-18T06:26:25.414Z,12.70
2019-02-18T06:28:55.321Z,13.05
2019-02-18T06:31:24.834Z,13.68
2019-02-18T06:33:54.378Z,14.10
2019-02-18T06:36:24.738Z,13.50
2019-02-18T06:38:54.470Z,14.45
2019-02-18T06:41:23.998Z,13.83
2019-02-18T06:43:53.502Z,14.93
2019-02-18T06:46:40.387Z,15.03
2019-02-18T06:49:15.866Z,14.93
2019-02-18T06:51:45.421Z,16.48
2019-02-18T06:54:15.033Z,14.10
2019-02-18T06:57:00.493Z,15.08
2019-02-18T06:59:38.205Z,13.88
2019-02-18T07:02:32.699Z,13.48
2019-02-18T07:05:09.683Z,13.70
2019-02-18T07:07:54.984Z,13.45
2019-02-18T07:10:33.038Z,12.15
2019-02-18T07:13:02.619Z,13.32
2019-02-18T07:15:32.201Z,12.40
2019-02-18T07:18:01.814Z,12.43
2019-02-18T07:20:31.313Z,12.40
2019-02-18T07:23:00.902Z,12.63
2019-02-18T07:25:30.395Z,11.28
2019-02-18T07:28:00.012Z,11.33
2019-02-18T07:30:29.519Z,12.15
2019-02-18T07:32:59.154Z,11.70
2019-02-18T07:35:28.794Z,11.95
2019-02-18T07:37:58.328Z,11.95
2019-02-18T07:40:27.991Z,12.23
2019-02-18T07:42:57.490Z,12.63
2019-02-18T07:45:27.022Z,11.85
2019-02-18T07:47:56.640Z,12.33
2019-02-18T07:50:26.318Z,11.48
2019-02-18T07:52:56.123Z,11.73
2019-02-18T07:55:25.608Z,10.75
2019-02-18T07:57:55.185Z,11.03
2019-02-18T08:00:24.637Z,12.95
2019-02-18T08:02:54.176Z,11.28
2019-02-18T08:05:23.672Z,9.85
2019-02-18T08:07:53.258Z,11.28
2019-02-18T08:10:22.787Z,10.58
2019-02-18T08:12:52.524Z,10.15
2019-02-18T08:15:21.998Z,9.73
2019-02-18T08:17:51.479Z,9.55
2019-02-18T08:20:20.967Z,11.35
2019-02-18T08:22:51.290Z,10.43
2019-02-18T08:25:20.796Z,11.90
2019-02-18T08:27:50.285Z,10.68
2019-02-18T08:30:19.865Z,10.58
2019-02-18T08:32:49.419Z,10.38
2019-02-18T08:35:18.966Z,8.35
2019-02-18T08:37:48.503Z,10.43
2019-02-18T08:40:22.472Z,9.38
2019-02-18T08:42:49.327Z,9.43
2019-02-18T08:45:18.867Z,9.58
2019-02-18T08:47:48.627Z,10.75
2019-02-18T08:50:18.370Z,10.70
2019-02-18T08:52:47.882Z,9.30
2019-02-18T08:55:17.728Z,11.10
2019-02-18T08:57:47.277Z,9.20
2019-02-18T09:00:36.429Z,8.90
2019-02-18T09:03:05.999Z,8.58
2019-02-18T09:05:35.580Z,10.05
2019-02-18T09:08:05.018Z,9.70
2019-02-18T09:10:34.519Z,8.88
2019-02-18T09:13:04.177Z,9.33
2019-02-18T09:15:33.627Z,8.60
2019-02-18T09:18:03.190Z,9.93
2019-02-18T09:20:32.678Z,10.05
2019-02-18T09:23:21.018Z,9.10
2019-02-18T09:26:01.282Z,9.90
2019-02-18T09:28:31.086Z,9.63
2019-02-18T09:31:00.603Z,9.03
2019-02-18T09:33:30.160Z,9.85
2019-02-18T09:35:59.725Z,9.10
2019-02-18T09:38:29.288Z,10.58
2019-02-18T09:40:58.806Z,9.60
2019-02-18T09:43:28.307Z,10.38
2019-02-18T09:45:57.854Z,7.83
2019-02-18T09:48:27.348Z,10.05
2019-02-18T09:50:56.919Z,9.65
2019-02-18T09:53:26.386Z,10.10
2019-02-18T09:55:55.948Z,7.62
2019-02-18T09:58:25.506Z,7.95
2019-02-18T10:00:55.118Z,7.47
2019-02-18T10:03:31.693Z,6.37
2019-02-18T10:05:55.763Z,6.62
2019-02-18T10:08:25.333Z,7.65
2019-02-18T10:10:56.155Z,7.87
2019-02-18T10:13:25.998Z,7.83
2019-02-18T10:15:55.492Z,7.05
2019-02-18T10:18:25.067Z,6.97
2019-02-18T10:20:54.570Z,7.78
2019-02-18T10:23:24.018Z,8.23
2019-02-18T10:25:53.518Z,7.42
2019-02-18T10:28:23.128Z,7.12
2019-02-18T10:30:52.638Z,7.75
2019-02-18T10:33:22.346Z,8.03
2019-02-18T10:35:51.865Z,7.78
2019-02-18T10:38:21.661Z,7.45
2019-02-18T10:40:51.171Z,7.58
2019-02-18T10:43:30.168Z,7.87
2019-02-18T10:45:52.144Z,7.35
2019-02-18T10:48:22.537Z,7.30
2019-02-18T10:50:52.030Z,7.05
2019-02-18T10:53:21.906Z,7.58
2019-02-18T10:55:51.333Z,7.03
2019-02-18T11:01:09.601Z,6.85
2019-02-18T11:03:39.140Z,7.92
2019-02-18T11:06:09.419Z,8.65
2019-02-18T11:08:39.105Z,7.17
2019-02-18T11:11:16.651Z,7.87
2019-02-18T11:13:39.998Z,6.28
2019-02-18T11:16:09.614Z,7.20
2019-02-18T11:18:39.144Z,6.40
2019-02-18T11:21:09.061Z,8.25
2019-02-18T11:23:38.642Z,7.65
2019-02-18T11:26:08.184Z,7.67
2019-02-18T11:28:37.687Z,7.50
2019-02-18T11:31:07.878Z,8.23
2019-02-18T11:33:37.486Z,7.50
2019-02-18T11:36:06.962Z,7.20
2019-02-18T11:38:36.710Z,7.00
2019-02-18T11:41:06.290Z,7.93
2019-02-18T11:43:35.827Z,8.30
2019-02-18T11:46:05.555Z,8.30
2019-02-18T11:48:35.365Z,8.13
2019-02-18T11:51:04.979Z,7.90
2019-02-18T11:53:34.449Z,8.40
2019-02-18T11:56:04.064Z,6.53
2019-02-18T11:58:33.616Z,7.73
2019-02-18T12:01:03.380Z,7.97
2019-02-18T12:03:33.013Z,7.47
2019-02-18T12:06:02.511Z,7.50
2019-02-18T12:08:35.433Z,7.10
2019-02-18T12:11:04.886Z,6.90
2019-02-18T12:13:34.400Z,8.50
2019-02-18T12:16:03.863Z,7.80
2019-02-18T12:18:33.401Z,7.70
2019-02-18T12:21:03.161Z,8.53
2019-02-18T12:23:32.685Z,8.83
2019-02-18T12:26:02.174Z,7.60
2019-02-18T12:28:31.661Z,7.93
2019-02-18T12:31:01.208Z,7.83
2019-02-18T12:33:31.008Z,8.07
2019-02-18T12:36:00.547Z,8.60
2019-02-18T12:38:30.059Z,8.90
2019-02-18T12:40:59.592Z,8.33
2019-02-18T12:43:29.423Z,7.90
2019-02-18T12:45:59.112Z,9.00
2019-02-18T12:48:31.444Z,7.50
2019-02-18T12:51:00.930Z,7.70
2019-02-18T12:53:30.386Z,8.10
2019-02-18T12:56:00.032Z,7.70
2019-02-18T12:58:29.588Z,8.00
2019-02-18T13:00:59.217Z,7.70
2019-02-18T13:03:29.368Z,8.90
2019-02-18T13:05:59.546Z,7.17
2019-02-18T13:08:29.062Z,7.03
2019-02-18T13:10:58.599Z,8.03
2019-02-18T13:13:28.224Z,7.70
2019-02-18T13:15:57.700Z,7.63
2019-02-18T13:18:27.235Z,8.67
2019-02-18T13:20:56.803Z,7.37
2019-02-18T13:23:26.545Z,8.03
2019-02-18T13:25:56.065Z,7.47
2019-02-18T13:28:25.564Z,8.00
2019-02-18T13:30:55.166Z,6.53
2019-02-18T13:33:24.635Z,6.63
2019-02-18T13:35:54.467Z,5.73
2019-02-18T13:38:23.946Z,6.40
2019-02-18T13:40:53.428Z,7.87
2019-02-18T13:43:23.009Z,5.57
2019-02-18T13:45:52.550Z,6.80
2019-02-18T13:48:22.226Z,6.03
2019-02-18T13:50:51.834Z,6.47
2019-02-18T13:53:21.418Z,6.70
2019-02-18T13:55:51.050Z,6.57
2019-02-18T13:58:21.750Z,7.33
2019-02-18T14:00:51.290Z,7.03
2019-02-18T14:03:20.948Z,5.97
2019-02-18T14:05:50.658Z,6.10
2019-02-18T14:08:20.181Z,5.63
2019-02-18T14:10:50.104Z,7.17
2019-02-18T14:13:19.571Z,6.23
2019-02-18T14:15:49.131Z,6.37
2019-02-18T14:18:19.095Z,5.77
2019-02-18T14:20:48.591Z,7.40
2019-02-18T14:23:18.275Z,7.63
2019-02-18T14:25:47.759Z,7.20
2019-02-18T14:28:17.283Z,7.33
2019-02-18T14:30:46.715Z,8.00
2019-02-18T14:33:17.258Z,6.40
2019-02-18T14:35:46.917Z,7.20
2019-02-18T14:38:16.401Z,7.93
2019-02-18T14:40:45.897Z,6.70
2019-02-18T14:43:15.373Z,6.23
2019-02-18T14:45:44.875Z,5.47
2019-02-18T14:48:14.689Z,5.33
2019-02-18T14:50:44.428Z,6.87
2019-02-18T14:53:14.158Z,6.80
2019-02-18T14:55:43.639Z,6.30
2019-02-18T14:58:13.552Z,6.43
2019-02-18T15:00:43.178Z,6.00
2019-02-18T15:03:12.767Z,8.30
2019-02-18T15:05:42.322Z,5.80
2019-02-18T15:08:11.876Z,5.90
2019-02-18T15:10:41.432Z,5.77
2019-02-18T15:13:10.996Z,6.33
2019-02-18T15:15:40.504Z,7.30
2019-02-18T15:18:10.039Z,6.00
2019-02-18T15:20:39.627Z,6.30
2019-02-18T15:23:09.146Z,6.10
2019-02-18T15:25:38.802Z,6.03
2019-02-18T15:28:08.736Z,5.73
2019-02-18T15:30:38.716Z,6.40
2019-02-18T15:33:08.478Z,6.23
2019-02-18T15:35:37.994Z,6.87
2019-02-18T15:38:07.696Z,6.77
2019-02-18T15:40:37.215Z,6.37
2019-02-18T15:43:06.876Z,7.10
2019-02-18T15:45:36.708Z,6.00
2019-02-18T15:48:06.443Z,6.30
2019-02-18T15:50:36.073Z,7.63
2019-02-18T15:53:05.619Z,6.33
2019-02-18T15:55:35.505Z,5.83
2019-02-18T15:58:05.200Z,7.07
2019-02-18T16:00:37.921Z,6.50
2019-02-18T16:03:07.513Z,7.00
2019-02-18T16:05:37.525Z,5.50
2019-02-18T16:08:07.185Z,5.70
2019-02-18T16:10:36.865Z,6.67
2019-02-18T16:13:06.846Z,6.40
2019-02-18T16:15:36.538Z,7.67
2019-02-18T16:18:06.170Z,7.03
2019-02-18T16:20:36.071Z,7.00
2019-02-18T16:23:05.762Z,7.27
2019-02-18T16:25:35.356Z,7.30
2019-02-18T16:28:05.594Z,8.83
2019-02-18T16:30:35.199Z,7.17
2019-02-18T16:33:04.819Z,8.63
2019-02-18T16:35:34.860Z,7.47
2019-02-18T16:38:04.577Z,11.67
2019-02-18T16:40:34.643Z,8.00
2019-02-18T16:43:06.222Z,8.50
2019-02-18T16:45:36.089Z,7.67
2019-02-18T16:48:06.151Z,8.30
2019-02-18T16:50:35.816Z,7.73
2019-02-18T16:53:09.651Z,7.97
2019-02-18T16:55:39.450Z,8.97
2019-02-18T16:58:09.290Z,10.20
2019-02-18T17:00:39.278Z,9.85
2019-02-18T17:03:09.015Z,8.15
2019-02-18T17:05:38.615Z,8.28
2019-02-18T17:08:11.370Z,10.98
2019-02-18T17:10:43.781Z,7.87
2019-02-18T17:13:13.517Z,8.13
2019-02-18T17:15:43.258Z,9.68
2019-02-18T17:18:12.827Z,8.78
2019-02-18T17:20:48.429Z,9.90
2019-02-18T17:23:18.409Z,8.95
2019-02-18T17:25:48.043Z,8.93
2019-02-18T17:28:19.185Z,8.18
2019-02-18T17:30:48.771Z,7.53
2019-02-18T17:33:18.364Z,12.28
2019-02-18T17:35:48.227Z,9.10
2019-02-18T17:38:38.774Z,9.60
2019-02-18T17:41:08.382Z,11.20
2019-02-18T17:43:38.024Z,10.00
2019-02-18T17:46:08.187Z,10.08
2019-02-18T17:48:37.796Z,11.22
2019-02-18T17:51:08.041Z,8.80
2019-02-18T17:53:37.879Z,8.15
2019-02-18T17:56:07.434Z,8.73
2019-02-18T17:58:39.764Z,8.03
2019-02-18T18:01:09.798Z,8.90
2019-02-18T18:03:39.663Z,8.85
2019-02-18T18:06:09.321Z,9.13
2019-02-18T18:08:39.230Z,10.00
2019-02-18T18:11:09.152Z,9.53
2019-02-18T18:13:38.918Z,8.58
2019-02-18T18:16:08.553Z,9.63
2019-02-18T18:18:38.539Z,9.08
2019-02-18T18:21:08.153Z,9.10
2019-02-18T18:23:38.546Z,8.48
2019-02-18T18:26:08.120Z,9.03
2019-02-18T18:28:37.741Z,10.63
2019-02-18T18:31:07.432Z,8.43
2019-02-18T18:33:36.931Z,8.58
2019-02-18T18:36:06.547Z,9.00
2019-02-18T18:38:36.210Z,9.85
2019-02-18T18:41:05.780Z,9.30
2019-02-18T18:43:36.255Z,9.35
2019-02-18T18:46:08.361Z,9.50
2019-02-18T18:48:38.709Z,8.28
2019-02-18T18:51:08.380Z,7.85
2019-02-18T18:53:38.056Z,7.17
2019-02-18T18:56:08.154Z,7.37
2019-02-18T18:58:37.844Z,5.97
2019-02-18T19:01:07.626Z,5.35
2019-02-18T19:03:37.377Z,6.05
2019-02-18T19:06:07.207Z,5.58
2019-02-18T19:08:40.067Z,6.15
2019-02-18T19:11:09.803Z,5.87
2019-02-18T19:13:58.391Z,5.47
2019-02-18T19:16:28.035Z,6.30
2019-02-18T19:19:05.139Z,5.00
2019-02-18T19:21:39.190Z,6.45
2019-02-18T19:24:09.320Z,6.17
2019-02-18T19:26:39.946Z,7.90
2019-02-18T19:29:17.545Z,7.17
2019-02-18T19:32:10.039Z,7.12
2019-02-18T19:34:42.286Z,7.15
2019-02-18T19:37:11.944Z,7.30
2019-02-18T19:39:42.214Z,7.25
2019-02-18T19:42:11.818Z,7.78
2019-02-18T19:44:41.493Z,7.90
2019-02-18T19:49:59.825Z,7.72
2019-02-18T19:52:29.935Z,10.68
2019-02-18T19:54:59.645Z,9.05
2019-02-18T19:57:29.372Z,7.25
2019-02-18T19:59:59.007Z,7.28
2019-02-18T20:02:29.049Z,7.70
2019-02-18T20:04:58.658Z,6.20
2019-02-18T20:07:28.420Z,6.65
2019-02-18T20:10:04.829Z,6.83
2019-02-18T20:12:53.393Z,8.20
2019-02-18T20:15:23.077Z,7.40
2019-02-18T20:17:52.757Z,8.48
2019-02-18T20:20:22.360Z,6.72
2019-02-18T20:22:52.010Z,6.83
2019-02-18T20:25:22.023Z,5.90
2019-02-18T20:27:51.745Z,6.00
2019-02-18T20:30:21.679Z,6.00
2019-02-18T20:32:51.250Z,6.53
2019-02-18T20:35:21.013Z,5.60
2019-02-18T20:37:53.876Z,6.15
2019-02-18T20:40:23.950Z,6.85
2019-02-18T20:42:53.449Z,7.70
2019-02-18T20:45:23.042Z,5.60
2019-02-18T20:47:52.592Z,7.28
2019-02-18T20:50:22.190Z,6.60
2019-02-18T20:52:51.684Z,8.13
2019-02-18T20:55:22.391Z,7.33
2019-02-18T20:57:52.268Z,6.10
2019-02-18T21:00:21.788Z,6.72
2019-02-18T21:02:51.379Z,6.22
2019-02-18T21:05:21.139Z,7.53
2019-02-18T21:07:50.898Z,6.97
2019-02-18T21:10:20.348Z,6.40
2019-02-18T21:12:52.521Z,7.08
2019-02-18T21:15:22.328Z,7.70
2019-02-18T21:17:52.012Z,7.30
2019-02-18T21:20:21.780Z,6.75
2019-02-18T21:22:51.558Z,7.25
2019-02-18T21:25:21.210Z,6.28
2019-02-18T21:27:50.689Z,6.72
2019-02-18T21:30:20.424Z,7.40
2019-02-18T21:32:50.008Z,6.75
2019-02-18T21:35:19.568Z,7.75
2019-02-18T21:37:49.103Z,8.73
2019-02-18T21:40:18.879Z,7.72
2019-02-18T21:42:49.179Z,8.23
2019-02-18T21:45:18.815Z,7.90
2019-02-18T21:47:48.490Z,8.48
2019-02-18T21:50:19.346Z,8.20
2019-02-18T21:52:48.989Z,7.85
2019-02-18T21:55:18.591Z,8.18
2019-02-18T21:57:48.182Z,8.35
2019-02-18T22:00:19.220Z,8.23
2019-02-18T22:02:48.822Z,8.18
2019-02-18T22:05:18.837Z,8.13
2019-02-18T22:07:48.633Z,7.50
2019-02-18T22:10:18.065Z,9.30
2019-02-18T22:12:47.678Z,8.28
2019-02-18T22:15:17.316Z,7.28
2019-02-18T22:17:46.824Z,7.70
2019-02-18T22:20:16.756Z,7.42
2019-02-18T22:22:46.271Z,7.87
2019-02-18T22:25:15.761Z,7.75
2019-02-18T22:27:45.268Z,7.00
2019-02-18T22:30:15.691Z,7.72
2019-02-18T22:32:45.320Z,7.60
2019-02-18T22:35:15.627Z,7.80
2019-02-18T22:37:46.413Z,8.08
2019-02-18T22:40:15.993Z,8.63
2019-02-18T22:42:45.663Z,8.18
2019-02-18T22:45:15.482Z,7.75
2019-02-18T22:47:45.124Z,8.30
2019-02-18T22:50:15.078Z,9.70
2019-02-18T22:52:44.904Z,8.58
2019-02-18T22:55:14.548Z,7.72
2019-02-18T22:57:44.120Z,8.78
2019-02-18T23:00:50.416Z,7.80
2019-02-18T23:03:20.711Z,8.03
2019-02-18T23:05:50.422Z,7.85
2019-02-18T23:08:20.511Z,10.88
2019-02-18T23:10:50.053Z,8.45
2019-02-18T23:13:20.081Z,8.88
2019-02-18T23:15:51.046Z,7.83
2019-02-18T23:18:21.633Z,8.28
2019-02-18T23:20:51.149Z,9.25
2019-02-18T23:23:20.678Z,8.35
2019-02-18T23:25:50.221Z,8.40
2019-02-18T23:28:20.172Z,7.70
2019-02-18T23:30:49.719Z,8.53
2019-02-18T23:33:19.313Z,7.58
2019-02-18T23:35:48.878Z,7.30
2019-02-18T23:38:18.437Z,8.38
2019-02-18T23:40:48.040Z,7.60
2019-02-18T23:43:17.910Z,8.05
2019-02-18T23:45:47.433Z,8.05
2019-02-18T23:48:16.907Z,12.55
2019-02-18T23:50:46.400Z,8.83
2019-02-18T23:53:16.055Z,8.20
2019-02-18T23:55:45.515Z,8.10
2019-02-18T23:58:15.079Z,9.00
